SBFZ/FOR METAR and TAF weather

Enter ICAO airport designator
Station Type Date Time Source
SBFZ METAR 2020/02/20 19:00 UTC NOAA

SBFZ 201900Z 09010KT 9999 SCT020 29/24 Q1007


Station Type Date Time Source
SBFZ Decoded METAR 2020/02/20 19:00 UTC NOAA

Fortaleza / pinto Martins , Brazil (SBFZ) 03-47S 038-32W 25M
Feb 20, 2020 - 02:00 PM EST / 2020.02.20 1900 UTC
Wind: from the E (090 degrees) at 12 MPH (10 KT):0
Visibility: greater than 7 mile(s):0
Sky conditions: partly cloudy
Temperature: 84 F (29 C)
Dew Point: 75 F (24 C)
Relative Humidity: 74%
Pressure (altimeter): 29.74 in. Hg (1007 hPa)
ob: SBFZ 201900Z 09010KT 9999 SCT020 29/24 Q1007
cycle: 19

Station Type Date Time Source
SBFZ TAF 2020/02/20 18:28 UTC NOAA

TAF SBFZ 201600Z 2018/2118 08010KT 9999 SCT020 TN26/2108Z TX28/2118Z
RMK PED

Example: see airport list